createdAt,value
2018-04-10T00:00:05.052Z,965.00
2018-04-10T00:01:05.608Z,964.94
2018-04-10T00:02:05.817Z,964.97
2018-04-10T00:03:05.199Z,964.98
2018-04-10T00:04:05.120Z,964.95
2018-04-10T00:05:05.351Z,965.06
2018-04-10T00:06:05.866Z,964.95
2018-04-10T00:07:08.966Z,964.83
2018-04-10T00:08:05.853Z,964.95
2018-04-10T00:09:05.743Z,964.98
2018-04-10T00:10:06.117Z,964.89
2018-04-10T00:11:05.933Z,964.89
2018-04-10T00:12:05.722Z,964.98
2018-04-10T00:13:05.526Z,964.90
2018-04-10T00:14:05.805Z,965.09
2018-04-10T00:15:05.785Z,965.04
2018-04-10T00:16:05.325Z,965.04
2018-04-10T00:17:05.998Z,965.01
2018-04-10T00:18:05.008Z,965.04
2018-04-10T00:19:05.779Z,965.07
2018-04-10T00:20:05.628Z,965.07
2018-04-10T00:21:05.685Z,965.01
2018-04-10T00:22:05.018Z,965.07
2018-04-10T00:23:05.580Z,965.07
2018-04-10T00:24:05.240Z,965.09
2018-04-10T00:25:05.333Z,965.15
2018-04-10T00:26:05.380Z,965.12
2018-04-10T00:27:06.732Z,965.07
2018-04-10T00:28:05.506Z,965.18
2018-04-10T00:29:05.452Z,965.07
2018-04-10T00:30:05.351Z,965.07
2018-04-10T00:31:05.232Z,965.10
2018-04-10T00:32:05.668Z,965.07
2018-04-10T00:33:05.528Z,965.12
2018-04-10T00:34:10.538Z,965.04
2018-04-10T00:35:05.755Z,965.04
2018-04-10T00:36:05.661Z,965.12
2018-04-10T00:37:05.675Z,964.98
2018-04-10T00:38:06.505Z,965.09
2018-04-10T00:39:05.517Z,965.06
2018-04-10T00:40:05.525Z,965.06
2018-04-10T00:41:05.928Z,965.03
2018-04-10T00:42:05.349Z,965.03
2018-04-10T00:43:06.736Z,965.09
2018-04-10T00:44:05.835Z,964.98
2018-04-10T00:45:05.531Z,964.98
2018-04-10T00:46:05.476Z,965.04
2018-04-10T00:47:05.006Z,965.04
2018-04-10T00:48:05.163Z,965.04
2018-04-10T00:49:05.115Z,965.13
2018-04-10T00:50:05.216Z,965.07
2018-04-10T00:51:05.744Z,964.98
2018-04-10T00:52:05.584Z,964.98
2018-04-10T00:53:05.541Z,964.95
2018-04-10T00:54:05.111Z,964.95
2018-04-10T00:55:05.752Z,965.04
2018-04-10T00:56:05.402Z,964.93
2018-04-10T00:57:05.267Z,964.98
2018-04-10T00:58:05.161Z,964.96
2018-04-10T00:59:05.364Z,965.04
2018-04-10T01:00:05.227Z,965.01
2018-04-10T01:01:05.384Z,965.01
2018-04-10T01:02:05.265Z,964.93
2018-04-10T01:03:05.105Z,964.99
2018-04-10T01:04:05.679Z,964.96
2018-04-10T01:05:05.288Z,965.05
2018-04-10T01:06:05.101Z,965.05
2018-04-10T01:07:06.099Z,964.96
2018-04-10T01:08:05.124Z,965.05
2018-04-10T01:09:05.948Z,965.11
2018-04-10T01:10:05.064Z,965.08
2018-04-10T01:11:05.912Z,965.06
2018-04-10T01:12:05.817Z,965.06
2018-04-10T01:13:05.040Z,965.12
2018-04-10T01:14:05.987Z,964.98
2018-04-10T01:15:06.776Z,965.06
2018-04-10T01:16:05.651Z,964.95
2018-04-10T01:17:05.247Z,964.95
2018-04-10T01:18:06.175Z,964.95
2018-04-10T01:19:05.236Z,965.01
2018-04-10T01:20:05.483Z,964.89
2018-04-10T01:21:05.151Z,965.01
2018-04-10T01:22:05.943Z,964.92
2018-04-10T01:23:05.932Z,965.01
2018-04-10T01:24:05.510Z,964.87
2018-04-10T01:25:05.999Z,964.76
2018-04-10T01:26:05.310Z,964.90
2018-04-10T01:27:05.536Z,964.96
2018-04-10T01:28:05.932Z,964.76
2018-04-10T01:29:04.967Z,964.87
2018-04-10T01:30:05.849Z,964.87
2018-04-10T01:31:05.436Z,964.98
2018-04-10T01:32:05.483Z,964.84
2018-04-10T01:33:06.800Z,964.93
2018-04-10T01:34:05.054Z,965.04
2018-04-10T01:35:05.990Z,965.01
2018-04-10T01:36:05.991Z,965.13
2018-04-10T01:37:05.185Z,964.84
2018-04-10T01:38:05.680Z,964.93
2018-04-10T01:39:05.851Z,965.02
2018-04-10T01:40:05.855Z,964.96
2018-04-10T01:41:06.962Z,964.99
2018-04-10T01:42:05.689Z,965.02
2018-04-10T01:43:05.986Z,964.93
2018-04-10T01:44:05.182Z,964.99
2018-04-10T01:45:05.484Z,964.94
2018-04-10T01:46:05.384Z,964.97
2018-04-10T01:47:05.614Z,965.02
2018-04-10T01:48:04.994Z,965.02
2018-04-10T01:49:05.037Z,964.94
2018-04-10T01:50:05.918Z,964.91
2018-04-10T01:51:05.153Z,964.94
2018-04-10T01:52:05.328Z,965.00
2018-04-10T01:53:05.437Z,964.97
2018-04-10T01:54:05.088Z,964.83
2018-04-10T01:55:05.080Z,965.05
2018-04-10T01:56:05.146Z,965.11
2018-04-10T01:57:05.630Z,964.94
2018-04-10T01:58:05.056Z,964.85
2018-04-10T01:59:05.395Z,964.94
2018-04-10T02:00:05.999Z,965.05
2018-04-10T02:01:05.640Z,964.91
2018-04-10T02:02:05.713Z,965.05
2018-04-10T02:03:05.509Z,965.08
2018-04-10T02:04:05.438Z,964.93
2018-04-10T02:05:06.240Z,964.88
2018-04-10T02:06:05.449Z,964.88
2018-04-10T02:07:05.098Z,964.93
2018-04-10T02:08:05.016Z,964.96
2018-04-10T02:09:05.912Z,964.99
2018-04-10T02:10:05.451Z,964.91
2018-04-10T02:11:05.076Z,964.94
2018-04-10T02:12:05.690Z,965.00
2018-04-10T02:13:05.249Z,964.86
2018-04-10T02:14:04.902Z,964.79
2018-04-10T02:15:05.783Z,964.79
2018-04-10T02:16:05.073Z,964.71
2018-04-10T02:17:05.379Z,964.71
2018-04-10T02:18:05.158Z,964.87
2018-04-10T02:19:05.664Z,964.84
2018-04-10T02:20:05.139Z,964.85
2018-04-10T02:21:05.786Z,964.80
2018-04-10T02:22:05.784Z,964.75
2018-04-10T02:23:05.814Z,964.80
2018-04-10T02:24:05.908Z,964.94
2018-04-10T02:25:05.871Z,964.72
2018-04-10T02:26:05.773Z,964.86
2018-04-10T02:27:10.460Z,964.83
2018-04-10T02:28:05.198Z,964.83
2018-04-10T02:29:05.814Z,964.83
2018-04-10T02:30:05.904Z,964.70
2018-04-10T02:31:05.138Z,964.89
2018-04-10T02:32:05.256Z,964.73
2018-04-10T02:33:05.353Z,964.70
2018-04-10T02:34:05.860Z,964.64
2018-04-10T02:35:05.350Z,964.67
2018-04-10T02:36:05.268Z,964.83
2018-04-10T02:37:05.429Z,964.76
2018-04-10T02:38:05.949Z,964.79
2018-04-10T02:39:05.411Z,964.76
2018-04-10T02:40:10.395Z,964.79
2018-04-10T02:41:05.202Z,964.68
2018-04-10T02:42:05.270Z,964.76
2018-04-10T02:43:05.208Z,964.84
2018-04-10T02:44:05.348Z,964.79
2018-04-10T02:45:05.165Z,964.84
2018-04-10T02:46:05.425Z,964.87
2018-04-10T02:47:04.994Z,964.96
2018-04-10T02:48:05.692Z,964.74
2018-04-10T02:49:05.878Z,964.96
2018-04-10T02:50:05.769Z,964.99
2018-04-10T02:51:05.752Z,965.02
2018-04-10T02:52:05.635Z,964.94
2018-04-10T02:53:05.010Z,965.05
2018-04-10T02:54:05.743Z,965.03
2018-04-10T02:55:05.747Z,964.94
2018-04-10T02:56:05.490Z,965.03
2018-04-10T02:57:06.080Z,964.91
2018-04-10T02:58:05.752Z,965.00
2018-04-10T02:59:05.569Z,964.94
2018-04-10T03:00:05.415Z,964.89
2018-04-10T03:01:05.368Z,965.03
2018-04-10T03:02:04.906Z,964.97
2018-04-10T03:03:05.555Z,964.92
2018-04-10T03:04:05.219Z,964.83
2018-04-10T03:05:05.136Z,964.83
2018-04-10T03:06:05.716Z,964.89
2018-04-10T03:07:05.755Z,964.92
2018-04-10T03:08:05.469Z,964.87
2018-04-10T03:09:05.907Z,964.76
2018-04-10T03:10:05.919Z,964.79
2018-04-10T03:11:05.232Z,964.84
2018-04-10T03:12:05.289Z,964.77
2018-04-10T03:13:05.775Z,964.87
2018-04-10T03:14:05.620Z,964.93
2018-04-10T03:15:05.165Z,964.93
2018-04-10T03:16:05.830Z,964.96
2018-04-10T03:17:05.301Z,965.02
2018-04-10T03:18:05.229Z,964.96
2018-04-10T03:19:05.435Z,964.88
2018-04-10T03:20:05.522Z,964.91
2018-04-10T03:21:06.183Z,964.88
2018-04-10T03:22:06.451Z,964.77
2018-04-10T03:23:04.943Z,964.72
2018-04-10T03:24:05.693Z,964.77
2018-04-10T03:25:05.859Z,964.80
2018-04-10T03:26:05.838Z,964.88
2018-04-10T03:27:05.162Z,964.72
2018-04-10T03:28:05.443Z,964.70
2018-04-10T03:29:04.928Z,964.56
2018-04-10T03:30:05.004Z,964.83
2018-04-10T03:31:05.626Z,964.65
2018-04-10T03:32:05.367Z,964.54
2018-04-10T03:33:05.480Z,964.71
2018-04-10T03:34:05.632Z,964.71
2018-04-10T03:35:05.529Z,964.74
2018-04-10T03:36:06.046Z,964.80
2018-04-10T03:37:05.163Z,964.63
2018-04-10T03:38:05.700Z,964.55
2018-04-10T03:39:05.277Z,964.60
2018-04-10T03:40:04.975Z,964.49
2018-04-10T03:41:05.889Z,964.55
2018-04-10T03:42:05.858Z,964.69
2018-04-10T03:43:05.973Z,964.53
2018-04-10T03:44:05.608Z,964.75
2018-04-10T03:45:06.881Z,964.50
2018-04-10T03:46:05.438Z,964.64
2018-04-10T03:47:06.131Z,964.50
2018-04-10T03:48:05.784Z,964.62
2018-04-10T03:49:05.409Z,964.51
2018-04-10T03:50:10.587Z,964.51
2018-04-10T03:51:05.391Z,964.62
2018-04-10T03:52:10.300Z,964.54
2018-04-10T03:53:10.115Z,964.48
2018-04-10T03:54:05.619Z,964.62
2018-04-10T03:55:05.743Z,964.59
2018-04-10T03:56:10.680Z,964.48
2018-04-10T03:57:05.626Z,964.68
2018-04-10T03:58:05.897Z,964.57
2018-04-10T03:59:05.773Z,964.51
2018-04-10T04:00:06.431Z,964.62
2018-04-10T04:01:05.223Z,964.59
2018-04-10T04:02:05.104Z,964.59
2018-04-10T04:03:04.946Z,964.79
2018-04-10T04:04:05.872Z,964.68
2018-04-10T04:05:06.594Z,964.70
2018-04-10T04:06:05.302Z,964.73
2018-04-10T04:07:05.913Z,964.48
2018-04-10T04:08:05.723Z,964.73
2018-04-10T04:09:05.830Z,964.62
2018-04-10T04:10:05.259Z,964.67
2018-04-10T04:11:05.379Z,964.67
2018-04-10T04:12:05.800Z,964.56
2018-04-10T04:13:05.914Z,964.62
2018-04-10T04:14:05.093Z,964.56
2018-04-10T04:15:05.823Z,964.70
2018-04-10T04:16:04.999Z,964.62
2018-04-10T04:17:05.469Z,964.70
2018-04-10T04:18:06.183Z,964.70
2018-04-10T04:19:05.880Z,964.62
2018-04-10T04:20:04.979Z,964.67
2018-04-10T04:21:05.249Z,964.73
2018-04-10T04:22:05.201Z,964.62
2018-04-10T04:23:05.371Z,964.73
2018-04-10T04:24:06.122Z,964.73
2018-04-10T04:25:05.568Z,964.54
2018-04-10T04:26:05.579Z,964.57
2018-04-10T04:27:05.264Z,964.59
2018-04-10T04:28:05.662Z,964.46
2018-04-10T04:29:04.953Z,964.51
2018-04-10T04:30:05.051Z,964.51
2018-04-10T04:31:05.714Z,964.60
2018-04-10T04:32:05.544Z,964.57
2018-04-10T04:33:05.550Z,964.40
2018-04-10T04:34:05.765Z,964.54
2018-04-10T04:35:07.714Z,964.54
2018-04-10T04:36:05.394Z,964.66
2018-04-10T04:37:06.832Z,964.52
2018-04-10T04:38:05.228Z,964.52
2018-04-10T04:39:05.478Z,964.52
2018-04-10T04:40:05.160Z,964.54
2018-04-10T04:41:05.904Z,964.54
2018-04-10T04:42:05.002Z,964.43
2018-04-10T04:43:05.930Z,964.63
2018-04-10T04:44:06.048Z,964.45
2018-04-10T04:45:05.502Z,964.59
2018-04-10T04:46:05.956Z,964.48
2018-04-10T04:47:04.937Z,964.73
2018-04-10T04:48:05.917Z,964.48
2018-04-10T04:49:05.893Z,964.47
2018-04-10T04:50:05.475Z,964.47
2018-04-10T04:51:05.134Z,964.53
2018-04-10T04:52:05.221Z,964.64
2018-04-10T04:53:05.465Z,964.64
2018-04-10T04:54:06.063Z,964.52
2018-04-10T04:55:05.092Z,964.55
2018-04-10T04:56:05.002Z,964.63
2018-04-10T04:57:06.173Z,964.55
2018-04-10T04:58:05.141Z,964.58
2018-04-10T04:59:05.381Z,964.57
2018-04-10T05:00:05.519Z,964.63
2018-04-10T05:01:10.419Z,964.71
2018-04-10T05:02:05.314Z,964.68
2018-04-10T05:03:05.374Z,964.65
2018-04-10T05:04:05.450Z,964.76
2018-04-10T05:05:05.449Z,964.68
2018-04-10T05:06:05.856Z,964.86
2018-04-10T05:07:10.501Z,964.75
2018-04-10T05:08:05.464Z,964.85
2018-04-10T05:09:05.802Z,964.91
2018-04-10T05:10:05.835Z,964.69
2018-04-10T05:11:06.142Z,964.85
2018-04-10T05:12:05.937Z,964.85
2018-04-10T05:13:06.110Z,964.90
2018-04-10T05:14:05.622Z,964.84
2018-04-10T05:15:05.941Z,964.95
2018-04-10T05:16:05.154Z,964.89
2018-04-10T05:17:05.414Z,964.67
2018-04-10T05:18:06.018Z,964.94
2018-04-10T05:19:05.811Z,964.78
2018-04-10T05:20:05.643Z,964.88
2018-04-10T05:21:06.778Z,964.92
2018-04-10T05:22:10.753Z,964.86
2018-04-10T05:23:06.029Z,964.94
2018-04-10T05:24:10.966Z,964.96
2018-04-10T05:25:05.940Z,964.84
2018-04-10T05:26:05.234Z,964.86
2018-04-10T05:27:05.646Z,964.75
2018-04-10T05:28:05.111Z,964.84
2018-04-10T05:29:06.031Z,964.79
2018-04-10T05:30:05.089Z,964.91
2018-04-10T05:31:05.216Z,964.85
2018-04-10T05:32:05.565Z,964.98
2018-04-10T05:33:05.098Z,964.76
2018-04-10T05:34:06.290Z,965.00
2018-04-10T05:35:05.717Z,964.80
2018-04-10T05:36:05.109Z,964.98
2018-04-10T05:37:05.457Z,965.03
2018-04-10T05:38:05.337Z,964.96
2018-04-10T05:39:05.466Z,964.96
2018-04-10T05:40:05.192Z,964.84
2018-04-10T05:41:05.322Z,964.91
2018-04-10T05:42:05.873Z,964.91
2018-04-10T05:43:05.000Z,964.90
2018-04-10T05:44:05.332Z,964.79
2018-04-10T05:45:10.511Z,964.91
2018-04-10T05:46:06.436Z,964.93
2018-04-10T05:47:05.527Z,964.92
2018-04-10T05:48:05.316Z,964.94
2018-04-10T05:49:05.314Z,964.94
2018-04-10T05:50:06.013Z,964.74
2018-04-10T05:51:05.352Z,964.95
2018-04-10T05:52:10.764Z,964.88
2018-04-10T05:53:05.711Z,964.90
2018-04-10T05:54:05.138Z,965.04
2018-04-10T05:55:05.929Z,964.92
2018-04-10T05:56:05.623Z,964.91
2018-04-10T05:57:05.108Z,964.87
2018-04-10T05:58:06.242Z,964.90
2018-04-10T05:59:05.480Z,964.97
2018-04-10T06:00:05.949Z,964.94
2018-04-10T06:01:05.856Z,964.99
2018-04-10T06:02:10.594Z,965.04
2018-04-10T06:03:05.636Z,964.98
2018-04-10T06:04:06.217Z,964.91
2018-04-10T06:05:04.921Z,965.08
2018-04-10T06:06:05.824Z,965.07
2018-04-10T06:07:10.579Z,964.95
2018-04-10T06:08:07.219Z,964.97
2018-04-10T06:09:05.201Z,964.96
2018-04-10T06:10:06.527Z,964.87
2018-04-10T06:11:10.168Z,964.89
2018-04-10T06:12:05.169Z,964.88
2018-04-10T06:13:05.467Z,964.90
2018-04-10T06:14:05.611Z,964.79
2018-04-10T06:15:04.978Z,965.00
2018-04-10T06:16:05.957Z,964.97
2018-04-10T06:17:05.503Z,964.96
2018-04-10T06:18:05.539Z,964.96
2018-04-10T06:19:10.426Z,965.01
2018-04-10T06:20:05.889Z,964.92
2018-04-10T06:21:05.683Z,964.94
2018-04-10T06:22:05.976Z,964.85
2018-04-10T06:23:05.167Z,964.90
2018-04-10T06:24:05.436Z,964.87
2018-04-10T06:25:05.403Z,964.86
2018-04-10T06:26:05.041Z,964.85
2018-04-10T06:27:05.302Z,964.90
2018-04-10T06:28:05.308Z,964.95
2018-04-10T06:29:05.499Z,964.92
2018-04-10T06:30:05.316Z,964.80
2018-04-10T06:31:06.022Z,964.90
2018-04-10T06:32:11.026Z,964.90
2018-04-10T06:33:05.128Z,964.95
2018-04-10T06:34:05.532Z,964.86
2018-04-10T06:35:05.922Z,964.91
2018-04-10T06:36:05.700Z,964.94
2018-04-10T06:37:05.769Z,964.99
2018-04-10T06:38:05.476Z,964.90
2018-04-10T06:39:05.269Z,965.04
2018-04-10T06:40:05.632Z,964.95
2018-04-10T06:41:05.777Z,965.03
2018-04-10T06:42:05.986Z,964.96
2018-04-10T06:43:05.939Z,964.77
2018-04-10T06:44:05.602Z,964.84
2018-04-10T06:45:05.976Z,964.89
2018-04-10T06:46:05.523Z,964.83
2018-04-10T06:47:05.189Z,964.94
2018-04-10T06:48:05.292Z,965.02
2018-04-10T06:49:10.961Z,965.02
2018-04-10T06:50:06.456Z,964.90
2018-04-10T06:51:05.661Z,964.84
2018-04-10T06:52:04.940Z,964.95
2018-04-10T06:53:05.337Z,964.94
2018-04-10T06:54:05.320Z,964.85
2018-04-10T06:55:05.391Z,964.93
2018-04-10T06:56:05.443Z,965.01
2018-04-10T06:57:05.503Z,964.95
2018-04-10T06:58:05.312Z,964.92
2018-04-10T06:59:05.506Z,965.03
2018-04-10T07:00:05.680Z,965.05
2018-04-10T07:01:05.210Z,965.02
2018-04-10T07:02:05.590Z,965.08
2018-04-10T07:03:05.360Z,965.08
2018-04-10T07:04:06.235Z,965.13
2018-04-10T07:05:05.447Z,965.04
2018-04-10T07:06:05.540Z,965.01
2018-04-10T07:07:05.678Z,965.04
2018-04-10T07:08:05.172Z,964.97
2018-04-10T07:09:05.397Z,964.92
2018-04-10T07:10:06.162Z,965.20
2018-04-10T07:11:05.866Z,965.08
2018-04-10T07:12:05.897Z,965.05
2018-04-10T07:13:05.002Z,965.13
2018-04-10T07:14:05.779Z,965.13
2018-04-10T07:15:06.098Z,965.01
2018-04-10T07:16:10.112Z,965.10
2018-04-10T07:17:05.117Z,965.10
2018-04-10T07:18:05.292Z,965.09
2018-04-10T07:19:05.028Z,964.95
2018-04-10T07:20:05.589Z,965.15
2018-04-10T07:21:04.986Z,965.17
2018-04-10T07:22:06.064Z,965.06
2018-04-10T07:23:05.135Z,965.11
2018-04-10T07:24:05.659Z,965.11
2018-04-10T07:25:05.590Z,965.17
2018-04-10T07:26:05.310Z,965.11
2018-04-10T07:27:05.402Z,965.16
2018-04-10T07:28:05.098Z,965.13
2018-04-10T07:29:05.361Z,965.07
2018-04-10T07:30:05.321Z,965.07
2018-04-10T07:31:05.036Z,965.16
2018-04-10T07:32:06.009Z,965.10
2018-04-10T07:33:05.642Z,965.16
2018-04-10T07:34:06.033Z,965.04
2018-04-10T07:35:06.119Z,965.09
2018-04-10T07:36:06.544Z,965.07
2018-04-10T07:37:05.565Z,965.09
2018-04-10T07:38:05.411Z,965.18
2018-04-10T07:39:05.858Z,965.20
2018-04-10T07:40:05.618Z,965.20
2018-04-10T07:41:05.387Z,965.11
2018-04-10T07:42:05.171Z,965.14
2018-04-10T07:43:05.285Z,965.11
2018-04-10T07:44:05.514Z,965.22
2018-04-10T07:45:05.766Z,965.22
2018-04-10T07:46:05.230Z,965.19
2018-04-10T07:47:05.304Z,965.25
2018-04-10T07:48:05.552Z,965.33
2018-04-10T07:49:05.920Z,965.19
2018-04-10T07:50:06.203Z,965.19
2018-04-10T07:51:05.431Z,965.27
2018-04-10T07:52:05.670Z,965.42
2018-04-10T07:53:05.390Z,965.27
2018-04-10T07:54:06.166Z,965.30
2018-04-10T07:55:05.193Z,965.27
2018-04-10T07:56:05.265Z,965.24
2018-04-10T07:57:05.842Z,965.36
2018-04-10T07:58:05.674Z,965.24
2018-04-10T07:59:05.957Z,965.32
2018-04-10T08:00:04.959Z,965.15
2018-04-10T08:01:05.804Z,965.26
2018-04-10T08:02:05.635Z,965.44
2018-04-10T08:03:05.678Z,965.41
2018-04-10T08:04:04.976Z,965.29
2018-04-10T08:05:05.798Z,965.32
2018-04-10T08:06:05.489Z,965.29
2018-04-10T08:07:05.745Z,965.37
2018-04-10T08:08:05.394Z,965.49
2018-04-10T08:09:05.353Z,965.46
2018-04-10T08:10:05.389Z,965.40
2018-04-10T08:11:05.721Z,965.48
2018-04-10T08:12:05.787Z,965.36
2018-04-10T08:13:05.793Z,965.48
2018-04-10T08:14:05.342Z,965.27
2018-04-10T08:15:05.661Z,965.38
2018-04-10T08:16:05.287Z,965.44
2018-04-10T08:17:05.528Z,965.32
2018-04-10T08:18:05.669Z,965.47
2018-04-10T08:19:05.622Z,965.38
2018-04-10T08:20:04.928Z,965.29
2018-04-10T08:21:05.744Z,965.46
2018-04-10T08:22:06.046Z,965.31
2018-04-10T08:23:05.354Z,965.40
2018-04-10T08:24:05.502Z,965.40
2018-04-10T08:25:05.572Z,965.28
2018-04-10T08:26:05.107Z,965.31
2018-04-10T08:27:11.830Z,965.36
2018-04-10T08:28:10.753Z,965.33
2018-04-10T08:29:05.280Z,965.42
2018-04-10T08:30:05.404Z,965.36
2018-04-10T08:31:05.608Z,965.24
2018-04-10T08:32:04.975Z,965.29
2018-04-10T08:33:05.112Z,965.41
2018-04-10T08:34:05.097Z,965.35
2018-04-10T08:35:05.950Z,965.26
2018-04-10T08:36:05.247Z,965.26
2018-04-10T08:37:05.246Z,965.29
2018-04-10T08:38:05.288Z,965.17
2018-04-10T08:39:05.497Z,965.17
2018-04-10T08:40:05.117Z,965.31
2018-04-10T08:41:10.217Z,965.13
2018-04-10T08:42:06.137Z,965.10
2018-04-10T08:43:06.062Z,965.28
2018-04-10T08:44:05.564Z,965.10
2018-04-10T08:45:05.838Z,965.19
2018-04-10T08:46:05.611Z,965.24
2018-04-10T08:47:05.261Z,965.18
2018-04-10T08:48:05.107Z,965.27
2018-04-10T08:49:05.492Z,965.21
2018-04-10T08:50:05.356Z,965.20
2018-04-10T08:51:05.802Z,965.23
2018-04-10T08:52:05.834Z,965.14
2018-04-10T08:53:05.694Z,965.11
2018-04-10T08:54:05.542Z,965.26
2018-04-10T08:55:05.195Z,965.14
2018-04-10T08:56:06.146Z,965.10
2018-04-10T08:57:05.789Z,965.19
2018-04-10T08:58:05.581Z,965.22
2018-04-10T08:59:05.746Z,965.16
2018-04-10T09:00:05.872Z,965.21
2018-04-10T09:01:05.431Z,965.21
2018-04-10T09:02:05.315Z,965.10
2018-04-10T09:03:05.060Z,965.18
2018-04-10T09:04:05.585Z,965.24
2018-04-10T09:05:05.563Z,965.27
2018-04-10T09:06:05.877Z,965.18
2018-04-10T09:07:05.227Z,965.18
2018-04-10T09:08:04.970Z,965.20
2018-04-10T09:09:05.759Z,965.20
2018-04-10T09:10:05.738Z,965.26
2018-04-10T09:11:05.642Z,965.26
2018-04-10T09:12:05.175Z,965.17
2018-04-10T09:13:05.256Z,965.20
2018-04-10T09:14:05.229Z,965.19
2018-04-10T09:15:05.413Z,965.22
2018-04-10T09:16:05.325Z,965.19
2018-04-10T09:17:05.359Z,965.04
2018-04-10T09:18:10.885Z,965.19
2018-04-10T09:19:05.795Z,965.24
2018-04-10T09:20:05.868Z,965.06
2018-04-10T09:21:05.155Z,965.09
2018-04-10T09:22:05.049Z,965.12
2018-04-10T09:23:06.018Z,965.23
2018-04-10T09:24:05.929Z,965.03
2018-04-10T09:25:05.859Z,965.17
2018-04-10T09:26:05.662Z,965.22
2018-04-10T09:27:05.870Z,965.19
2018-04-10T09:28:05.527Z,965.10
2018-04-10T09:29:05.499Z,964.95
2018-04-10T09:30:11.043Z,965.07
2018-04-10T09:31:05.320Z,965.03
2018-04-10T09:32:05.944Z,965.14
2018-04-10T09:33:06.024Z,965.08
2018-04-10T09:34:05.938Z,965.00
2018-04-10T09:35:05.605Z,964.99
2018-04-10T09:36:05.904Z,965.02
2018-04-10T09:37:05.624Z,964.99
2018-04-10T09:38:05.166Z,964.90
2018-04-10T09:39:05.828Z,964.89
2018-04-10T09:40:04.988Z,964.89
2018-04-10T09:41:05.161Z,964.89
2018-04-10T09:42:06.106Z,964.86
2018-04-10T09:43:05.909Z,964.97
2018-04-10T09:44:05.897Z,964.91
2018-04-10T09:45:05.263Z,964.96
2018-04-10T09:46:05.530Z,964.93
2018-04-10T09:47:05.868Z,965.02
2018-04-10T09:48:05.173Z,964.99
2018-04-10T09:49:06.300Z,964.99
2018-04-10T09:50:05.498Z,965.19
2018-04-10T09:51:05.846Z,965.10
2018-04-10T09:52:05.700Z,965.03
2018-04-10T09:53:05.175Z,964.94
2018-04-10T09:54:05.537Z,965.03
2018-04-10T09:55:05.744Z,965.08
2018-04-10T09:56:05.237Z,965.05
2018-04-10T09:57:05.442Z,964.99
2018-04-10T09:58:05.482Z,965.05
2018-04-10T09:59:05.151Z,964.79
2018-04-10T10:00:05.280Z,964.87
2018-04-10T10:01:06.004Z,964.98
2018-04-10T10:02:06.363Z,965.01
2018-04-10T10:03:05.386Z,964.89
2018-04-10T10:04:05.419Z,965.03
2018-04-10T10:05:05.179Z,964.94
2018-04-10T10:06:05.793Z,964.97
2018-04-10T10:07:05.195Z,964.91
2018-04-10T10:08:05.039Z,964.77
2018-04-10T10:09:05.319Z,964.85
2018-04-10T10:10:06.024Z,964.96
2018-04-10T10:11:05.106Z,964.90
2018-04-10T10:12:05.925Z,964.99
2018-04-10T10:13:05.865Z,964.87
2018-04-10T10:14:05.421Z,964.99
2018-04-10T10:15:05.592Z,964.99
2018-04-10T10:16:05.625Z,964.93
2018-04-10T10:17:05.942Z,964.99
2018-04-10T10:18:05.435Z,965.07
2018-04-10T10:19:05.033Z,964.98
2018-04-10T10:20:10.822Z,965.04
2018-04-10T10:21:05.685Z,965.04
2018-04-10T10:22:05.251Z,964.95
2018-04-10T10:23:05.378Z,964.86
2018-04-10T10:24:05.531Z,964.95
2018-04-10T10:25:05.712Z,964.95
2018-04-10T10:26:05.293Z,964.92
2018-04-10T10:27:05.463Z,964.92
2018-04-10T10:28:06.199Z,964.95
2018-04-10T10:29:05.419Z,965.12
2018-04-10T10:30:06.358Z,965.03
2018-04-10T10:31:05.489Z,964.91
2018-04-10T10:32:06.050Z,964.91
2018-04-10T10:33:06.060Z,964.94
2018-04-10T10:34:10.997Z,964.94
2018-04-10T10:35:05.839Z,964.94
2018-04-10T10:36:05.764Z,964.80
2018-04-10T10:37:05.556Z,964.77
2018-04-10T10:38:05.622Z,964.94
2018-04-10T10:39:06.060Z,964.99
2018-04-10T10:40:05.797Z,964.74
2018-04-10T10:41:05.225Z,964.87
2018-04-10T10:42:05.209Z,964.74
2018-04-10T10:43:05.809Z,964.80
2018-04-10T10:44:05.495Z,964.79
2018-04-10T10:45:05.054Z,964.90
2018-04-10T10:46:05.829Z,964.84
2018-04-10T10:47:05.105Z,964.93
2018-04-10T10:48:05.516Z,964.90
2018-04-10T10:49:05.275Z,964.98
2018-04-10T10:50:05.953Z,964.89
2018-04-10T10:51:05.879Z,964.76
2018-04-10T10:52:05.731Z,964.76
2018-04-10T10:53:05.956Z,964.86
2018-04-10T10:54:06.057Z,964.84
2018-04-10T10:55:05.174Z,964.95
2018-04-10T10:56:05.716Z,964.76
2018-04-10T10:57:05.753Z,964.79
2018-04-10T10:58:05.091Z,964.89
2018-04-10T10:59:05.081Z,964.79
2018-04-10T11:00:05.170Z,964.76
2018-04-10T11:01:05.317Z,964.76
2018-04-10T11:02:05.454Z,965.04
2018-04-10T11:03:05.371Z,964.92
2018-04-10T11:04:05.608Z,964.95
2018-04-10T11:05:05.729Z,964.76
2018-04-10T11:06:05.985Z,964.89
2018-04-10T11:07:05.160Z,964.73
2018-04-10T11:08:05.221Z,964.75
2018-04-10T11:09:05.818Z,964.69
2018-04-10T11:10:05.435Z,964.83
2018-04-10T11:11:05.303Z,964.85
2018-04-10T11:12:05.677Z,964.66
2018-04-10T11:13:05.905Z,964.97
2018-04-10T11:14:05.147Z,964.85
2018-04-10T11:15:05.909Z,964.88
2018-04-10T11:16:05.379Z,964.88
2018-04-10T11:17:05.488Z,964.88
2018-04-10T11:18:05.727Z,964.72
2018-04-10T11:19:05.423Z,964.83
2018-04-10T11:20:05.837Z,964.92
2018-04-10T11:21:05.717Z,964.83
2018-04-10T11:22:05.692Z,964.83
2018-04-10T11:23:05.783Z,964.78
2018-04-10T11:24:05.227Z,964.75
2018-04-10T11:25:05.086Z,964.85
2018-04-10T11:26:05.914Z,964.75
2018-04-10T11:27:05.159Z,964.75
2018-04-10T11:28:06.236Z,964.74
2018-04-10T11:29:05.599Z,964.88
2018-04-10T11:30:05.874Z,964.74
2018-04-10T11:31:05.158Z,964.74
2018-04-10T11:32:05.758Z,964.71
2018-04-10T11:33:05.772Z,964.68
2018-04-10T11:34:05.638Z,964.74
2018-04-10T11:35:10.425Z,964.59
2018-04-10T11:36:05.476Z,964.71
2018-04-10T11:37:05.177Z,964.65
2018-04-10T11:38:05.731Z,964.68
2018-04-10T11:39:10.837Z,964.73
2018-04-10T11:40:05.960Z,964.70
2018-04-10T11:41:06.224Z,964.87
2018-04-10T11:42:05.265Z,964.67
2018-04-10T11:43:05.609Z,964.73
2018-04-10T11:44:04.975Z,964.76
2018-04-10T11:45:05.736Z,964.73
2018-04-10T11:46:06.014Z,964.76
2018-04-10T11:47:05.932Z,964.90
2018-04-10T11:48:05.578Z,964.79
2018-04-10T11:49:05.820Z,964.77
2018-04-10T11:50:05.178Z,964.74
2018-04-10T11:51:05.830Z,964.80
2018-04-10T11:52:05.925Z,964.71
2018-04-10T11:53:06.046Z,964.62
2018-04-10T11:54:06.058Z,964.74
2018-04-10T11:55:05.418Z,964.77
2018-04-10T11:56:05.181Z,964.85
2018-04-10T11:57:05.882Z,964.74
2018-04-10T11:58:05.787Z,964.74
2018-04-10T11:59:04.952Z,964.74
2018-04-10T12:00:05.942Z,964.56
2018-04-10T12:01:05.112Z,964.68
2018-04-10T12:02:10.254Z,964.71
2018-04-10T12:03:05.212Z,964.65
2018-04-10T12:04:05.232Z,964.79
2018-04-10T12:05:05.993Z,964.87
2018-04-10T12:06:05.963Z,964.68
2018-04-10T12:07:05.392Z,964.56
2018-04-10T12:08:05.476Z,964.68
2018-04-10T12:09:10.127Z,964.74
2018-04-10T12:10:04.989Z,964.70
2018-04-10T12:11:05.266Z,964.76
2018-04-10T12:12:05.584Z,964.61
2018-04-10T12:13:05.406Z,964.58
2018-04-10T12:14:05.524Z,964.52
2018-04-10T12:15:05.278Z,964.58
2018-04-10T12:16:05.424Z,964.67
2018-04-10T12:17:05.527Z,964.64
2018-04-10T12:18:05.044Z,964.64
2018-04-10T12:19:06.052Z,964.49
2018-04-10T12:20:06.046Z,964.67
2018-04-10T12:21:05.252Z,964.64
2018-04-10T12:22:05.644Z,964.61
2018-04-10T12:23:05.885Z,964.52
2018-04-10T12:24:05.760Z,964.52
2018-04-10T12:25:05.249Z,964.55
2018-04-10T12:26:05.842Z,964.61
2018-04-10T12:27:05.487Z,964.52
2018-04-10T12:28:07.079Z,964.40